Time;durP1;ratioP1;P1;durP2;ratioP2;P2;SDS_P1;SDS_P2;PMS_P1;PMS_P2;Temp;Humidity;BMP_temperature;BMP_pressure;BME280_temperature;BME280_humidity;BME280_pressure;Samples;Min_cycle;Max_cycle;Signal;HPM_P1;HPM_P2
2023/12/01 00:00:47;;;;;;;32.90;22.40;;;;;;;-0.41;100.00;100408.06;5130865;27;20073;-35
2023/12/01 00:03:13;;;;;;;31.43;21.60;;;;;;;-0.20;100.00;100434.06;5131323;27;20077;-35
2023/12/01 00:05:39;;;;;;;30.42;21.30;;;;;;;-0.12;100.00;100423.44;5131226;27;20059;-35
2023/12/01 00:08:04;;;;;;;;;;;;;;;-0.07;100.00;100432.53;5122803;27;20442;-35
2023/12/01 00:10:29;;;;;;;33.78;21.98;;;;;;;-0.22;100.00;100438.75;5115962;28;19998;-35
2023/12/01 00:12:55;;;;;;;33.67;22.00;;;;;;;-0.27;100.00;100431.28;5117132;28;20031;-35
2023/12/01 00:15:20;;;;;;;28.77;20.10;;;;;;;-0.29;100.00;100431.47;5117337;28;20034;-35
2023/12/01 00:17:46;;;;;;;28.67;19.20;;;;;;;-0.31;100.00;100421.97;5117235;28;20118;-35
2023/12/01 00:20:11;;;;;;;29.25;19.92;;;;;;;-0.21;100.00;100435.06;5117553;28;20099;-35
2023/12/01 00:22:36;;;;;;;33.60;22.03;;;;;;;-0.39;100.00;100428.16;5117263;28;20107;-35
2023/12/01 00:25:02;;;;;;;31.20;21.17;;;;;;;-0.33;100.00;100438.09;5117217;28;20024;-35
2023/12/01 00:27:27;;;;;;;35.97;22.77;;;;;;;-0.45;100.00;100436.78;5117109;28;20132;-34
2023/12/01 00:29:53;;;;;;;29.73;19.73;;;;;;;-0.41;100.00;100442.59;5116860;28;20341;-35
2023/12/01 00:32:18;;;;;;;29.87;19.53;;;;;;;-0.44;100.00;100445.59;5116732;28;20341;-34
2023/12/01 00:34:43;;;;;;;32.43;20.00;;;;;;;-0.39;100.00;100444.09;5116786;28;20418;-35
2023/12/01 00:37:08;;;;;;;31.13;20.73;;;;;;;-0.40;100.00;100450.41;5116370;28;20427;-35
2023/12/01 00:39:34;;;;;;;28.57;19.80;;;;;;;-0.48;100.00;100436.31;5116319;28;20027;-35
2023/12/01 00:41:59;;;;;;;30.97;20.33;;;;;;;-0.37;100.00;100444.75;5116304;28;20038;-35
2023/12/01 00:44:25;;;;;;;29.93;20.57;;;;;;;-0.51;100.00;100424.19;5116250;28;20460;-35
2023/12/01 00:46:50;;;;;;;32.70;21.55;;;;;;;-0.41;100.00;100448.75;5116407;28;20039;-35
2023/12/01 00:49:15;;;;;;;29.10;20.20;;;;;;;-0.36;100.00;100454.38;5114969;28;20019;-35
2023/12/01 00:51:43;;;;;;;30.67;19.80;;;;;;;-0.27;100.00;100452.53;5116635;28;20031;-34
2023/12/01 00:54:09;;;;;;;27.27;18.33;;;;;;;-0.22;100.00;100454.69;5116349;28;20379;-34
2023/12/01 00:56:35;;;;;;;29.50;20.07;;;;;;;-0.24;100.00;100459.31;5116131;28;20043;-35
2023/12/01 00:59:00;;;;;;;28.48;18.80;;;;;;;-0.22;100.00;100465.31;5116000;28;20035;-35
2023/12/01 01:01:25;;;;;;;31.27;19.80;;;;;;;-0.34;100.00;100460.38;5116254;28;20028;-35
2023/12/01 01:03:51;;;;;;;30.27;19.57;;;;;;;-0.39;100.00;100465.34;5115846;28;20055;-35
2023/12/01 01:06:17;;;;;;;28.33;18.58;;;;;;;-0.33;100.00;100475.31;5115605;28;20387;-35
2023/12/01 01:08:42;;;;;;;30.57;19.80;;;;;;;-0.51;100.00;100456.06;5116259;28;20024;-35
2023/12/01 01:11:08;;;;;;;28.65;18.48;;;;;;;-0.44;100.00;100469.50;5115476;28;20468;-35
2023/12/01 01:13:33;;;;;;;30.33;19.97;;;;;;;-0.46;100.00;100475.00;5115726;28;20030;-35
2023/12/01 01:15:59;;;;;;;30.73;19.05;;;;;;;-0.49;100.00;100474.47;5115634;28;20035;-34
2023/12/01 01:18:24;;;;;;;28.67;18.57;;;;;;;-0.39;100.00;100485.75;5115087;27;20032;-35
2023/12/01 01:20:50;;;;;;;32.20;20.23;;;;;;;-0.70;100.00;100469.69;5114558;28;20606;-34
2023/12/01 01:23:15;;;;;;;25.93;17.63;;;;;;;-0.55;100.00;100486.63;5115077;28;20468;-34
2023/12/01 01:25:41;;;;;;;31.70;19.52;;;;;;;-0.63;100.00;100489.28;5115754;28;20027;-34
2023/12/01 01:28:07;;;;;;;30.23;20.30;;;;;;;-0.59;100.00;100482.63;5115152;28;20021;-35
2023/12/01 01:30:33;;;;;;;31.98;20.13;;;;;;;-0.67;100.00;100485.31;5115878;28;20357;-35
2023/12/01 01:32:58;;;;;;;30.07;18.47;;;;;;;-0.62;100.00;100486.47;5115224;28;20039;-35
2023/12/01 01:35:24;;;;;;;30.30;18.70;;;;;;;-0.59;100.00;100482.63;5115176;28;20024;-35
2023/12/01 01:37:49;;;;;;;36.47;21.77;;;;;;;-0.73;100.00;100483.28;5115204;28;20028;-35
2023/12/01 01:40:14;;;;;;;33.00;20.97;;;;;;;-0.72;100.00;100490.28;5115395;28;20026;-35
2023/12/01 01:42:40;;;;;;;28.58;16.90;;;;;;;-0.72;100.00;100477.84;5115147;28;20417;-34
2023/12/01 01:45:05;;;;;;;29.37;18.57;;;;;;;-0.68;100.00;100497.75;5115382;28;20111;-34
2023/12/01 01:47:34;;;;;;;30.85;18.73;;;;;;;-0.71;100.00;100482.16;5114795;28;20107;-35
2023/12/01 01:50:02;;;;;;;30.83;19.85;;;;;;;-0.63;100.00;100489.28;5114986;28;20055;-35
2023/12/01 01:52:28;;;;;;;29.23;18.40;;;;;;;-0.58;100.00;100489.63;5115232;28;20084;-35
2023/12/01 01:54:53;;;;;;;27.33;18.17;;;;;;;-0.53;100.00;100497.91;5114995;28;20403;-34
2023/12/01 01:57:19;;;;;;;32.00;19.73;;;;;;;-0.79;100.00;100469.69;5115451;28;20055;-34
2023/12/01 01:59:44;;;;;;;33.60;20.88;;;;;;;-0.69;100.00;100497.91;5114752;28;20115;-34
2023/12/01 02:02:10;;;;;;;31.20;18.57;;;;;;;-0.57;100.00;100507.22;5114514;28;20395;-34
2023/12/01 02:04:35;;;;;;;34.50;21.03;;;;;;;-0.59;100.00;100511.84;5114398;28;20486;-34
2023/12/01 02:07:02;;;;;;;34.30;22.27;;;;;;;-0.68;100.00;100502.22;5114687;28;20417;-35
2023/12/01 02:09:32;;;;;;;31.08;19.70;;;;;;;-0.66;100.00;100510.88;5114325;28;20032;-35
2023/12/01 02:11:57;;;;;;;33.97;20.27;;;;;;;-0.61;100.00;100513.84;5115102;28;20054;-35
2023/12/01 02:14:23;;;;;;;33.07;19.23;;;;;;;-0.62;100.00;100510.38;5114811;28;20444;-34
2023/12/01 02:16:49;;;;;;;;;;;;;;;-0.56;100.00;100509.69;5115188;28;20024;-35
2023/12/01 02:19:15;;;;;;;34.00;19.83;;;;;;;-0.78;100.00;100491.78;5115218;28;19919;-35
2023/12/01 02:21:47;;;;;;;34.10;19.60;;;;;;;-0.72;100.00;100492.94;5114735;28;20114;-35
2023/12/01 02:24:12;;;;;;;36.67;21.70;;;;;;;-0.67;100.00;100514.53;5114278;28;20035;-35
2023/12/01 02:26:38;;;;;;;38.95;21.42;;;;;;;-0.66;100.00;100509.03;5113955;28;20115;-35
2023/12/01 02:29:05;;;;;;;33.20;20.42;;;;;;;-0.62;100.00;100512.19;5114783;28;20077;-35
2023/12/01 02:31:30;;;;;;;34.42;19.55;;;;;;;-0.77;100.00;100495.28;5113974;28;20031;-34
2023/12/01 02:33:56;;;;;;;30.65;19.48;;;;;;;-0.74;100.00;100518.81;5114255;28;20022;-34
2023/12/01 02:36:21;;;;;;;33.50;19.53;;;;;;;-0.69;100.00;100522.63;5114385;28;20034;-34
2023/12/01 02:38:47;;;;;;;32.97;18.97;;;;;;;-0.68;100.00;100526.97;5113903;28;20122;-34
2023/12/01 02:41:13;;;;;;;37.47;19.27;;;;;;;-0.70;100.00;100520.97;5113900;28;20139;-35
2023/12/01 02:43:38;;;;;;;35.00;19.50;;;;;;;-0.76;100.00;100515.50;5113819;28;20027;-35
2023/12/01 02:46:04;;;;;;;32.77;19.07;;;;;;;-0.84;100.00;100501.22;5114035;28;20027;-35
2023/12/01 02:48:29;;;;;;;32.17;19.08;;;;;;;-0.74;100.00;100511.69;5114577;28;20032;-35
2023/12/01 02:50:55;;;;;;;39.53;20.50;;;;;;;-0.71;100.00;100515.84;5114330;28;20106;-35
2023/12/01 02:53:20;;;;;;;35.70;20.20;;;;;;;-0.70;100.00;100509.53;5114245;28;20455;-35
2023/12/01 02:55:46;;;;;;;36.47;20.30;;;;;;;-0.71;100.00;100494.59;5114592;28;20035;-35
2023/12/01 02:58:11;;;;;;;40.92;23.05;;;;;;;-0.66;100.00;100518.84;5113273;28;20035;-35
2023/12/01 03:00:37;;;;;;;37.55;20.50;;;;;;;-0.64;100.00;100512.34;5114470;28;20448;-35
2023/12/01 03:03:02;;;;;;;41.00;22.47;;;;;;;-0.66;100.00;100510.88;5113917;28;20111;-34
2023/12/01 03:05:27;;;;;;;42.23;23.03;;;;;;;-0.73;100.00;100512.50;5114747;28;20035;-34
2023/12/01 03:07:53;;;;;;;40.43;23.03;;;;;;;-0.75;100.00;100501.22;5113845;28;20050;-34
2023/12/01 03:10:18;;;;;;;42.73;23.47;;;;;;;-0.86;100.00;100497.91;5114428;28;20253;-34
2023/12/01 03:12:44;;;;;;;44.47;23.35;;;;;;;-0.77;100.00;100508.53;5114088;28;20032;-35
2023/12/01 03:15:14;;;;;;;44.78;23.60;;;;;;;-0.86;100.00;100489.13;5113792;28;20027;-35
2023/12/01 03:17:40;;;;;;;41.15;22.05;;;;;;;-0.69;100.00;100511.19;5113921;28;20493;-35
2023/12/01 03:20:10;;;;;;;42.17;22.27;;;;;;;-0.74;100.00;100500.22;5114108;28;20055;-35
2023/12/01 03:22:38;;;;;;;48.80;24.13;;;;;;;-0.73;100.00;100515.16;5113623;28;20053;-35
2023/12/01 03:25:09;;;;;;;45.72;23.45;;;;;;;-0.74;100.00;100511.69;5113535;28;20053;-35
2023/12/01 03:27:39;;;;;;;45.35;21.65;;;;;;;-0.68;100.00;100518.16;5113331;28;20048;-35
2023/12/01 03:30:15;;;;;;;47.80;23.38;;;;;;;-0.73;100.00;100523.13;5113879;28;20136;-35
2023/12/01 03:32:51;;;;;;;53.75;26.20;;;;;;;-0.91;100.00;100510.84;5113952;28;20047;-35
2023/12/01 03:35:17;;;;;;;47.53;24.35;;;;;;;-0.97;100.00;100511.53;5113435;28;20019;-35
2023/12/01 03:37:44;;;;;;;;;;;;;;;-0.94;100.00;100520.97;5114522;28;20031;-35
2023/12/01 03:40:12;;;;;;;53.65;25.73;;;;;;;-0.97;100.00;100522.13;5113553;28;19922;-35
2023/12/01 03:42:41;;;;;;;53.17;24.58;;;;;;;-1.11;100.00;100515.63;5114978;28;20065;-35
2023/12/01 03:45:07;;;;;;;53.20;24.42;;;;;;;-1.18;100.00;100527.06;5117460;28;20023;-35
2023/12/01 03:47:34;;;;;;;53.85;24.10;;;;;;;-1.13;100.00;100535.34;5117412;28;20073;-35
2023/12/01 03:50:01;;;;;;;49.22;23.35;;;;;;;-1.10;100.00;100540.34;5117325;28;20034;-35
2023/12/01 03:52:26;;;;;;;49.03;23.88;;;;;;;-1.07;100.00;100540.03;5117396;28;20112;-35
2023/12/01 03:54:51;;;;;;;53.33;23.87;;;;;;;-1.08;100.00;100538.34;5117509;28;20375;-35
2023/12/01 03:57:17;;;;;;;48.17;23.63;;;;;;;-1.10;100.00;100529.72;5117940;28;20052;-35
2023/12/01 03:59:42;;;;;;;46.30;22.57;;;;;;;-1.01;100.00;100544.69;5117669;28;20030;-35
2023/12/01 04:02:07;;;;;;;49.67;21.97;;;;;;;-0.97;100.00;100546.03;5116931;28;20494;-34
2023/12/01 04:04:32;;;;;;;45.60;21.63;;;;;;;-0.96;100.00;100528.28;5117049;28;20460;-35
2023/12/01 04:06:58;;;;;;;42.77;21.73;;;;;;;-0.93;100.00;100542.03;5117382;28;20038;-35
2023/12/01 04:09:23;;;;;;;47.63;21.83;;;;;;;-0.98;100.00;100544.34;5117259;28;20102;-35
2023/12/01 04:11:53;;;;;;;49.77;23.63;;;;;;;-1.08;100.00;100530.38;5117197;28;20494;-35
2023/12/01 04:14:18;;;;;;;42.42;20.67;;;;;;;-1.23;100.00;100519.56;5117087;28;20073;-35
2023/12/01 04:16:46;;;;;;;48.17;21.80;;;;;;;-1.25;100.00;100508.31;5117561;28;20032;-35
2023/12/01 04:19:11;;;;;;;46.30;23.05;;;;;;;-1.07;100.00;100545.34;5116702;28;20033;-35
2023/12/01 04:21:36;;;;;;;47.77;23.40;;;;;;;-1.09;100.00;100556.09;5116784;28;20414;-35
2023/12/01 04:24:02;;;;;;;47.50;22.60;;;;;;;-1.20;100.00;100537.00;5116400;28;20063;-35
2023/12/01 04:26:28;;;;;;;51.40;22.80;;;;;;;-1.10;100.00;100550.97;5116413;28;20023;-34
2023/12/01 04:28:54;;;;;;;46.30;21.00;;;;;;;-1.27;100.00;100528.03;5116547;28;20399;-34
2023/12/01 04:31:19;;;;;;;43.78;21.38;;;;;;;-1.01;100.00;100565.91;5116560;28;20110;-35
2023/12/01 04:33:44;;;;;;;52.20;22.30;;;;;;;-1.04;100.00;100567.06;5116458;28;20379;-34
2023/12/01 04:36:11;;;;;;;51.37;26.97;;;;;;;-1.16;100.00;100563.06;5116711;28;20080;-34
2023/12/01 04:38:37;;;;;;;48.88;22.90;;;;;;;-1.13;100.00;100565.38;5116410;28;20023;-34
2023/12/01 04:41:02;;;;;;;48.50;22.33;;;;;;;-1.01;100.00;100568.56;5117163;28;20062;-34
2023/12/01 04:43:28;;;;;;;42.63;21.00;;;;;;;-0.95;100.00;100575.88;5116049;28;20395;-34
2023/12/01 04:45:53;;;;;;;50.00;23.33;;;;;;;-0.97;100.00;100577.88;5117118;28;20031;-34
2023/12/01 04:48:19;;;;;;;54.33;25.07;;;;;;;-1.05;100.00;100576.03;5116507;28;20307;-34
2023/12/01 04:50:47;;;;;;;59.15;28.55;;;;;;;-1.14;100.00;100581.47;5116526;28;20413;-34
2023/12/01 04:53:13;;;;;;;49.85;24.23;;;;;;;-1.16;100.00;100562.22;5115949;28;20024;-34
2023/12/01 04:55:38;;;;;;;53.67;25.73;;;;;;;-1.23;100.00;100554.06;5116631;28;20039;-34
2023/12/01 04:58:03;;;;;;;53.63;26.17;;;;;;;-1.02;100.00;100584.63;5116792;28;20039;-34
2023/12/01 05:00:29;;;;;;;56.03;26.20;;;;;;;-1.00;100.00;100583.50;5116040;28;20116;-34
2023/12/01 05:03:06;;;;;;;52.73;25.57;;;;;;;-0.90;100.00;100589.50;5115963;28;20019;-34
2023/12/01 05:05:36;;;;;;;54.00;26.65;;;;;;;-0.89;100.00;100595.63;5116526;28;20027;-35
2023/12/01 05:08:04;;;;;;;56.17;26.35;;;;;;;-0.83;100.00;100593.16;5115803;28;20024;-35
2023/12/01 05:10:31;;;;;;;61.15;28.55;;;;;;;-0.89;100.00;100591.16;5115627;28;20032;-35
2023/12/01 05:13:01;;;;;;;57.22;27.38;;;;;;;-0.83;100.00;100601.13;5115558;28;20429;-34
2023/12/01 05:15:28;;;;;;;51.33;24.77;;;;;;;-0.76;100.00;100605.78;5115346;28;20027;-35
2023/12/01 05:18:00;;;;;;;55.08;27.30;;;;;;;-0.71;100.00;100604.31;5116029;28;20364;-35
2023/12/01 05:20:27;;;;;;;51.85;24.00;;;;;;;-0.60;100.00;100608.47;5116001;28;20031;-35
2023/12/01 05:23:01;;;;;;;56.72;27.15;;;;;;;-0.60;100.00;100611.13;5115011;28;20077;-34
2023/12/01 05:25:32;;;;;;;54.03;25.67;;;;;;;-0.52;100.00;100619.94;5115341;28;20467;-35
2023/12/01 05:27:59;;;;;;;53.25;28.85;;;;;;;-0.64;100.00;100615.91;5115055;28;20059;-35
2023/12/01 05:30:51;;;;;;;58.03;29.40;;;;;;;-0.68;100.00;100622.56;5115285;28;20053;-35
2023/12/01 05:33:16;;;;;;;52.97;27.80;;;;;;;-0.62;100.00;100626.41;5112419;28;20042;-35
2023/12/01 05:35:42;;;;;;;50.33;26.20;;;;;;;-0.66;100.00;100611.78;5114641;28;20027;-35
2023/12/01 05:38:08;;;;;;;45.78;25.33;;;;;;;-0.57;100.00;100624.06;5114915;28;20054;-35
2023/12/01 05:40:35;;;;;;;51.53;27.98;;;;;;;-0.61;100.00;100625.41;5114667;28;20027;-36
2023/12/01 05:43:02;;;;;;;46.50;27.52;;;;;;;-0.66;100.00;100625.88;5114768;28;20027;-35
2023/12/01 05:45:29;;;;;;;40.55;25.00;;;;;;;-0.58;100.00;100630.38;5114842;28;20103;-35
2023/12/01 05:47:56;;;;;;;45.00;25.10;;;;;;;-0.58;100.00;100628.56;5114704;28;20121;-35
2023/12/01 05:50:26;;;;;;;42.97;25.73;;;;;;;-0.58;100.00;100638.34;5114964;28;20045;-35
2023/12/01 05:52:53;;;;;;;40.53;24.13;;;;;;;-0.65;100.00;100634.69;5114595;28;20098;-35
2023/12/01 05:55:23;;;;;;;38.90;23.13;;;;;;;-0.49;100.00;100641.84;5114835;28;20114;-35
2023/12/01 05:57:53;;;;;;;42.17;24.52;;;;;;;-0.54;100.00;100644.97;5115155;28;20052;-35
2023/12/01 06:00:20;;;;;;;39.95;23.45;;;;;;;-0.46;100.00;100650.31;5114437;28;20032;-35
2023/12/01 06:02:47;;;;;;;40.42;24.45;;;;;;;-0.52;100.00;100648.31;5114440;28;20051;-35
2023/12/01 06:05:13;;;;;;;39.67;22.80;;;;;;;-0.53;100.00;100638.69;5114182;28;20019;-35
2023/12/01 06:07:44;;;;;;;35.00;22.45;;;;;;;-0.43;100.00;100646.50;5114490;28;20026;-35
2023/12/01 06:10:11;;;;;;;36.63;22.67;;;;;;;-0.43;100.00;100642.03;5114569;28;20027;-35
2023/12/01 06:12:39;;;;;;;37.28;23.13;;;;;;;-0.49;100.00;100647.97;5114327;28;20023;-35
2023/12/01 06:15:07;;;;;;;39.72;22.90;;;;;;;-0.43;100.00;100644.69;5113897;28;20094;-35
2023/12/01 06:17:32;;;;;;;37.47;23.45;;;;;;;-0.55;100.00;100651.28;5114350;27;20123;-35
2023/12/01 06:19:57;;;;;;;39.30;24.10;;;;;;;-0.60;100.00;100648.28;5114564;28;20472;-35
2023/12/01 06:22:23;;;;;;;41.17;24.67;;;;;;;-0.56;100.00;100645.16;5114539;28;20024;-35
2023/12/01 06:24:49;;;;;;;36.53;21.63;;;;;;;-0.48;100.00;100631.06;5114070;28;20108;-35
2023/12/01 06:27:14;;;;;;;41.00;25.25;;;;;;;-0.52;100.00;100650.97;5114563;28;20768;-35
2023/12/01 06:29:39;;;;;;;40.07;24.30;;;;;;;-0.48;100.00;100657.63;5113925;28;20088;-35
2023/12/01 06:32:05;;;;;;;36.17;21.43;;;;;;;-0.37;100.00;100649.34;5114409;28;20258;-35
2023/12/01 06:34:31;;;;;;;35.28;21.58;;;;;;;-0.30;100.00;100650.31;5114350;28;20380;-35
2023/12/01 06:36:59;;;;;;;38.00;22.85;;;;;;;-0.42;100.00;100643.69;5113330;28;20027;-35
2023/12/01 06:39:25;;;;;;;40.53;23.33;;;;;;;-0.33;100.00;100650.66;5114023;28;20055;-35
2023/12/01 06:41:50;;;;;;;;;;;;;;;-0.26;100.00;100645.53;5114504;28;20104;-35
2023/12/01 06:44:15;;;;;;;35.97;21.38;;;;;;;-0.31;100.00;100653.16;5114133;28;19989;-35
2023/12/01 06:46:41;;;;;;;32.87;20.10;;;;;;;-0.28;100.00;100645.69;5114398;28;20466;-35
2023/12/01 06:49:07;;;;;;;39.13;23.37;;;;;;;-0.45;100.00;100651.13;5114081;28;20414;-35
2023/12/01 06:51:32;;;;;;;34.08;20.63;;;;;;;-0.34;100.00;100646.34;5114304;28;20561;-35
2023/12/01 06:53:58;;;;;;;32.73;21.13;;;;;;;-0.29;100.00;100654.66;5113744;28;20035;-35
2023/12/01 06:56:23;;;;;;;36.10;22.43;;;;;;;-0.38;100.00;100642.38;5114550;28;20351;-35
2023/12/01 06:58:49;;;;;;;35.10;20.77;;;;;;;-0.21;100.00;100647.69;5114039;28;20032;-35
2023/12/01 07:01:18;;;;;;;37.07;22.27;;;;;;;-0.06;100.00;100667.28;5113944;28;20414;-35
2023/12/01 07:03:47;;;;;;;38.67;22.85;;;;;;;-0.18;100.00;100656.16;5113543;28;20533;-35
2023/12/01 07:06:14;;;;;;;41.03;24.50;;;;;;;-0.14;100.00;100676.09;5114135;28;20028;-35
2023/12/01 07:08:40;;;;;;;38.28;22.20;;;;;;;-0.04;100.00;100674.09;5114084;28;20031;-35
2023/12/01 07:11:08;;;;;;;34.47;20.80;;;;;;;0.08;100.00;100669.28;5113845;28;20059;-35
2023/12/01 07:13:34;;;;;;;32.50;19.27;;;;;;;0.16;100.00;100682.56;5113821;28;20053;-35
2023/12/01 07:15:59;;;;;;;31.35;19.75;;;;;;;0.12;100.00;100681.25;5113990;28;20035;-35
2023/12/01 07:18:25;;;;;;;33.30;20.37;;;;;;;0.13;100.00;100698.84;5116571;28;20042;-34
2023/12/01 07:20:50;;;;;;;32.40;20.67;;;;;;;0.14;100.00;100689.88;5118335;28;20028;-35
2023/12/01 07:23:19;;;;;;;33.15;20.63;;;;;;;0.14;100.00;100694.38;5117894;28;20027;-35
2023/12/01 07:25:47;;;;;;;35.35;21.00;;;;;;;0.16;100.00;100693.22;5118432;28;20051;-35
2023/12/01 07:28:13;;;;;;;34.25;20.10;;;;;;;0.17;100.00;100686.88;5117841;28;20031;-35
2023/12/01 07:30:41;;;;;;;32.92;20.52;;;;;;;0.20;100.00;100688.41;5117712;28;20035;-35
2023/12/01 07:33:07;;;;;;;34.15;19.55;;;;;;;0.28;100.00;100691.03;5117631;28;20455;-35
2023/12/01 07:35:34;;;;;;;30.90;18.55;;;;;;;0.43;100.00;100688.53;5117288;28;20548;-34
2023/12/01 07:37:59;;;;;;;;;;;;;;;0.47;100.00;100698.66;5117960;28;20028;-35
2023/12/01 07:40:26;;;;;;;33.72;19.20;;;;;;;0.43;100.00;100699.16;5117839;28;19956;-34
2023/12/01 07:42:53;;;;;;;34.67;20.20;;;;;;;0.28;100.00;100699.00;5117523;28;20037;-35
2023/12/01 07:45:19;;;;;;;33.40;20.50;;;;;;;0.18;100.00;100699.19;5117753;28;20080;-35
2023/12/01 07:47:45;;;;;;;26.17;16.27;;;;;;;0.29;100.00;100694.50;5117422;28;20484;-35
2023/12/01 07:50:10;;;;;;;34.85;21.20;;;;;;;0.05;100.00;100692.69;5117395;28;20034;-35
2023/12/01 07:52:36;;;;;;;27.80;17.00;;;;;;;0.18;100.00;100698.34;5117402;28;20081;-35
2023/12/01 07:55:01;;;;;;;33.93;21.03;;;;;;;-0.18;100.00;100672.09;5117696;28;20049;-35
2023/12/01 07:57:26;;;;;;;34.80;22.17;;;;;;;-0.11;100.00;100693.53;5117554;28;20305;-35
2023/12/01 07:59:52;;;;;;;33.90;20.43;;;;;;;-0.23;100.00;100702.84;5117693;28;20039;-34
2023/12/01 08:02:17;;;;;;;28.60;18.67;;;;;;;-0.27;100.00;100689.88;5117485;28;20019;-35
2023/12/01 08:04:43;;;;;;;29.60;18.57;;;;;;;-0.32;100.00;100699.31;5117262;28;20134;-35
2023/12/01 08:07:08;;;;;;;31.20;18.83;;;;;;;-0.31;100.00;100699.16;5117155;28;20027;-35
2023/12/01 08:09:34;;;;;;;28.93;18.20;;;;;;;-0.43;100.00;100683.72;5117589;27;20024;-35
2023/12/01 08:12:00;;;;;;;26.25;16.45;;;;;;;-0.32;100.00;100684.22;5116928;28;20110;-35
2023/12/01 08:14:26;;;;;;;29.25;17.42;;;;;;;-0.28;100.00;100698.84;5116864;28;20039;-35
2023/12/01 08:16:54;;;;;;;26.77;16.65;;;;;;;-0.25;100.00;100700.31;5117577;28;20024;-36
2023/12/01 08:19:19;;;;;;;28.60;17.30;;;;;;;-0.21;100.00;100700.84;5116494;28;20395;-35
2023/12/01 08:21:45;;;;;;;28.67;17.77;;;;;;;-0.24;100.00;100711.78;5116557;28;20032;-35
2023/12/01 08:24:11;;;;;;;25.15;15.55;;;;;;;-0.27;100.00;100713.78;5116451;28;20464;-35
2023/12/01 08:26:37;;;;;;;26.70;16.80;;;;;;;-0.19;100.00;100710.31;5117082;28;20034;-35
2023/12/01 08:29:03;;;;;;;25.48;14.98;;;;;;;-0.16;100.00;100714.47;5116150;28;20024;-35
2023/12/01 08:31:28;;;;;;;24.25;13.57;;;;;;;-0.17;100.00;100712.81;5117427;28;20024;-35
2023/12/01 08:33:53;;;;;;;23.35;15.68;;;;;;;-0.20;100.00;100724.56;5116250;28;20102;-35
2023/12/01 08:36:19;;;;;;;21.40;14.00;;;;;;;-0.16;100.00;100725.91;5116490;28;20456;-35
2023/12/01 08:38:44;;;;;;;20.63;13.03;;;;;;;-0.16;100.00;100719.78;5116446;28;20024;-35
2023/12/01 08:41:10;;;;;;;18.37;12.57;;;;;;;-0.12;100.00;100724.59;5117178;28;20023;-35
2023/12/01 08:43:35;;;;;;;17.90;12.57;;;;;;;-0.06;100.00;100737.22;5116430;28;20062;-35
2023/12/01 08:46:02;;;;;;;19.00;13.00;;;;;;;-0.09;100.00;100739.41;5116371;28;20031;-35
2023/12/01 08:48:27;;;;;;;17.88;12.13;;;;;;;-0.05;100.00;100744.22;5117081;28;20431;-35
2023/12/01 08:50:53;;;;;;;19.50;12.05;;;;;;;-0.13;100.00;100724.78;5115934;28;20020;-35
2023/12/01 08:53:18;;;;;;;16.47;11.23;;;;;;;-0.23;100.00;100721.44;5116126;28;20131;-35
2023/12/01 08:55:43;;;;;;;17.20;11.47;;;;;;;-0.10;100.00;100740.38;5116645;28;20059;-35
2023/12/01 08:58:09;;;;;;;17.47;11.43;;;;;;;-0.08;100.00;100738.41;5116672;28;20055;-35
2023/12/01 09:00:35;;;;;;;18.73;12.20;;;;;;;-0.06;100.00;100747.03;5116290;28;20055;-35
2023/12/01 09:03:00;;;;;;;18.20;12.50;;;;;;;-0.17;100.00;100742.03;5116265;28;20032;-35
2023/12/01 09:05:26;;;;;;;17.77;11.73;;;;;;;-0.21;100.00;100732.72;5115950;28;20121;-35
2023/12/01 09:07:51;;;;;;;17.30;12.03;;;;;;;-0.16;100.00;100741.03;5116100;27;20035;-35
2023/12/01 09:10:19;;;;;;;16.83;12.40;;;;;;;-0.16;100.00;100746.34;5116150;28;20035;-35
2023/12/01 09:12:45;;;;;;;16.80;12.30;;;;;;;-0.20;100.00;100753.81;5115755;28;20036;-35
2023/12/01 09:15:11;;;;;;;19.77;11.60;;;;;;;-0.11;100.00;100744.88;5115426;28;20024;-35
2023/12/01 09:17:36;;;;;;;18.08;12.07;;;;;;;-0.13;100.00;100751.34;5116496;28;20084;-35
2023/12/01 09:20:02;;;;;;;16.55;11.63;;;;;;;-0.09;100.00;100755.34;5115569;28;20076;-35
2023/12/01 09:22:28;;;;;;;18.63;12.50;;;;;;;-0.13;100.00;100749.53;5115603;28;20532;-35
2023/12/01 09:24:53;;;;;;;15.87;10.50;;;;;;;0.05;100.00;100765.34;5115739;28;20031;-35
2023/12/01 09:27:19;;;;;;;16.70;10.90;;;;;;;0.01;100.00;100763.19;5115598;28;20063;-35
2023/12/01 09:29:45;;;;;;;17.23;11.23;;;;;;;-0.05;100.00;100754.00;5115684;28;20137;-35
2023/12/01 09:32:10;;;;;;;17.63;12.10;;;;;;;0.05;100.00;100765.34;5115479;28;20111;-36
2023/12/01 09:34:35;;;;;;;15.97;10.93;;;;;;;0.07;100.00;100770.50;5115342;28;20030;-35
2023/12/01 09:37:01;;;;;;;15.27;10.80;;;;;;;-0.04;100.00;100761.84;5114970;28;20124;-35
2023/12/01 09:39:26;;;;;;;17.67;12.13;;;;;;;-0.04;100.00;100766.31;5115132;28;20024;-35
2023/12/01 09:41:54;;;;;;;15.43;10.90;;;;;;;0.02;100.00;100776.28;5115008;28;20047;-35
2023/12/01 09:44:19;;;;;;;15.23;11.10;;;;;;;-0.01;100.00;100776.59;5114848;28;20038;-35
2023/12/01 09:46:48;;;;;;;15.33;11.40;;;;;;;0.02;100.00;100776.28;5115737;27;20031;-35
2023/12/01 09:49:14;;;;;;;14.52;11.10;;;;;;;0.06;100.00;100782.94;5115015;28;20270;-35
2023/12/01 09:51:39;;;;;;;17.13;11.37;;;;;;;-0.04;100.00;100779.63;5115073;28;20034;-35
2023/12/01 09:54:04;;;;;;;17.00;12.17;;;;;;;-0.07;100.00;100788.72;5115059;28;20102;-35
2023/12/01 09:56:30;;;;;;;18.48;11.07;;;;;;;0.09;100.00;100787.09;5114874;28;20093;-35
2023/12/01 09:58:56;;;;;;;15.18;10.93;;;;;;;0.07;100.00;100789.94;5115193;28;20535;-35
2023/12/01 10:01:23;;;;;;;16.95;12.07;;;;;;;0.00;100.00;100783.63;5115143;28;20031;-36
2023/12/01 10:03:48;;;;;;;15.95;11.07;;;;;;;0.04;100.00;100789.41;5114825;28;20054;-35
2023/12/01 10:06:14;;;;;;;14.67;10.20;;;;;;;0.09;100.00;100795.91;5115107;28;20028;-35
2023/12/01 10:08:39;;;;;;;18.37;11.57;;;;;;;0.16;100.00;100791.59;5114443;28;20030;-35
2023/12/01 10:11:25;;;;;;;14.30;10.45;;;;;;;0.21;100.00;100783.97;5114424;28;20023;-35
2023/12/01 10:13:51;;;;;;;17.33;11.73;;;;;;;0.19;100.00;100782.44;5114705;28;20131;-35
2023/12/01 10:16:17;;;;;;;;;;;;;;;0.19;100.00;100793.91;5115740;28;20100;-35
2023/12/01 10:19:00;;;;;;;16.50;11.15;;;;;;;0.14;100.00;100784.78;5114691;28;20010;-35
2023/12/01 10:21:43;;;;;;;19.33;12.80;;;;;;;0.06;100.00;100784.78;5115056;28;20363;-35
2023/12/01 10:24:22;;;;;;;15.63;10.85;;;;;;;0.12;100.00;100789.44;5114320;28;20023;-35
2023/12/01 10:26:49;;;;;;;16.17;10.73;;;;;;;0.16;100.00;100791.59;5114869;28;20023;-35
2023/12/01 10:29:34;;;;;;;17.20;11.32;;;;;;;0.11;100.00;100780.63;5114280;28;20102;-35
2023/12/01 10:32:11;;;;;;;17.45;12.40;;;;;;;0.02;100.00;100778.94;5114546;28;20023;-35
2023/12/01 10:34:37;;;;;;;16.60;11.32;;;;;;;0.04;100.00;100782.25;5114218;28;20047;-35
2023/12/01 10:37:03;;;;;;;18.25;12.35;;;;;;;-0.01;100.00;100779.28;5114111;28;20035;-35
2023/12/01 10:39:29;;;;;;;17.75;12.38;;;;;;;-0.01;100.00;100777.44;5114188;28;20047;-35
2023/12/01 10:41:56;;;;;;;17.80;12.23;;;;;;;-0.04;100.00;100782.28;5115060;28;20422;-36
2023/12/01 10:44:26;;;;;;;19.70;13.93;;;;;;;-0.02;100.00;100780.28;5114140;28;20032;-35
2023/12/01 10:46:55;;;;;;;18.92;12.68;;;;;;;0.04;100.00;100779.59;5114887;28;20360;-35
2023/12/01 10:49:22;;;;;;;20.08;13.55;;;;;;;0.15;100.00;100792.59;5114001;28;20032;-35
2023/12/01 10:51:55;;;;;;;20.70;14.40;;;;;;;0.01;100.00;100782.63;5114199;28;20059;-36
2023/12/01 10:54:27;;;;;;;18.38;12.77;;;;;;;-0.08;100.00;100773.78;5114567;28;20102;-35
2023/12/01 10:57:06;;;;;;;19.38;12.98;;;;;;;-0.02;100.00;100782.94;5114025;28;20142;-35
2023/12/01 10:59:34;;;;;;;18.95;12.50;;;;;;;0.04;100.00;100784.09;5114244;28;20059;-35
2023/12/01 11:02:00;;;;;;;19.00;12.95;;;;;;;-0.02;100.00;100777.63;5114491;28;20095;-35